Wetterdaten: Woche 29.01.18 - 04.02.18 (KW5)
Datum Zeit Temp. I. Temp. A. Feuchte I. Feuchte A. Luftdruck Regen Wind Richtung Sonnenschein UV Solar Taupunkt Windchill Windben
29.01.2018 00:00 23,3 C 5,3 C 64 % 95 % 1032,0 hPa 0,0 l/m 11,1 km/h (2 Bft) W-SW 0,00 h 0,0 UV-I 0 W/m 4,6 C 1,9 C 18,6 km/h (3 Bft)
29.01.2018 01:00 22,9 C 5,3 C 65 % 96 % 1032,0 hPa 0,0 l/m 9,5 km/h (2 Bft) W-SW 0,00 h 0,0 UV-I 0 W/m 4,7 C 2,8 C 16,3 km/h (3 Bft)
29.01.2018 02:00 22,8 C 5,3 C 66 % 96 % 1031,8 hPa 0,0 l/m 4,7 km/h (1 Bft) SW 0,00 h 0,0 UV-I 0 W/m 4,8 C 5,0 C 10,0 km/h (2 Bft)
29.01.2018 03:00 22,8 C 5,4 C 66 % 97 % 1031,1 hPa 0,0 l/m 7,6 km/h (2 Bft) W-SW 0,00 h 0,0 UV-I 0 W/m 4,9 C 4,0 C 12,8 km/h (3 Bft)
29.01.2018 04:00 22,9 C 5,6 C 66 % 96 % 1030,8 hPa 0,0 l/m 7,3 km/h (2 Bft) W-SW 0,00 h 0,0 UV-I 0 W/m 5,0 C 3,9 C 12,9 km/h (3 Bft)
29.01.2018 05:00 22,8 C 5,5 C 66 % 96 % 1030,6 hPa 0,0 l/m 3,3 km/h (1 Bft) S-SW 0,00 h 0,0 UV-I 0 W/m 4,9 C 5,3 C 6,9 km/h (2 Bft)
29.01.2018 06:00 22,9 C 5,4 C 65 % 96 % 1030,4 hPa 0,2 l/m 6,2 km/h (2 Bft) SW 0,00 h 0,0 UV-I 0 W/m 4,8 C 4,7 C 11,4 km/h (2 Bft)
29.01.2018 07:00 23,1 C 5,4 C 64 % 96 % 1030,0 hPa 0,2 l/m 5,7 km/h (1 Bft) S-SW 0,00 h 0,0 UV-I 0 W/m 4,8 C 4,7 C 11,2 km/h (2 Bft)
29.01.2018 08:00 23,2 C 5,3 C 63 % 96 % 1029,9 hPa 0,0 l/m 8,9 km/h (2 Bft) SW 0,00 h 0,0 UV-I 7 W/m 4,7 C 3,0 C 15,5 km/h (3 Bft)
29.01.2018 09:00 23,2 C 5,3 C 64 % 95 % 1029,7 hPa 0,0 l/m 7,8 km/h (2 Bft) SW 0,00 h 0,0 UV-I 14 W/m 4,6 C 3,7 C 14,9 km/h (3 Bft)
29.01.2018 10:00 23,3 C 5,6 C 64 % 95 % 1029,3 hPa 0,0 l/m 7,4 km/h (2 Bft) SW 0,00 h 0,0 UV-I 27 W/m 4,8 C 4,3 C 13,3 km/h (3 Bft)
29.01.2018 11:00 23,3 C 5,8 C 64 % 95 % 1028,7 hPa 0,0 l/m 9,9 km/h (2 Bft) SW 0,00 h 0,0 UV-I 41 W/m 5,1 C 3,1 C 17,8 km/h (3 Bft)
29.01.2018 12:00 23,3 C 6,0 C 62 % 95 % 1027,9 hPa 0,0 l/m 8,7 km/h (2 Bft) SW 0,00 h 0,4 UV-I 41 W/m 5,2 C 4,0 C 16,2 km/h (3 Bft)
29.01.2018 13:00 23,3 C 6,3 C 62 % 94 % 1027,0 hPa 0,0 l/m 8,2 km/h (2 Bft) SW 0,00 h 0,0 UV-I 37 W/m 5,3 C 4,6 C 14,7 km/h (3 Bft)
29.01.2018 14:00 23,3 C 6,3 C 60 % 92 % 1026,0 hPa 0,0 l/m 9,1 km/h (2 Bft) SW 0,00 h 0,0 UV-I 25 W/m 5,2 C 4,2 C 15,9 km/h (3 Bft)
29.01.2018 15:00 23,3 C 6,4 C 59 % 91 % 1025,3 hPa 0,0 l/m 7,6 km/h (2 Bft) SW 0,00 h 0,0 UV-I 14 W/m 5,0 C 4,8 C 13,5 km/h (3 Bft)
29.01.2018 16:00 23,4 C 6,3 C 59 % 90 % 1024,5 hPa 0,0 l/m 10,7 km/h (2 Bft) W-SW 0,00 h 0,0 UV-I 8 W/m 4,8 C 3,2 C 19,1 km/h (3 Bft)
29.01.2018 17:00 23,4 C 6,2 C 58 % 90 % 1023,9 hPa 0,0 l/m 16,4 km/h (3 Bft) W-SW 0,00 h 0,0 UV-I 0 W/m 4,7 C 0,1 C 26,2 km/h (4 Bft)
29.01.2018 18:00 23,5 C 6,3 C 58 % 89 % 1023,6 hPa 0,0 l/m 19,6 km/h (3 Bft) W-SW 0,00 h 0,0 UV-I 0 W/m 4,6 C -1,2 C 31,3 km/h (5 Bft)
29.01.2018 19:00 23,4 C 6,5 C 60 % 89 % 1023,6 hPa 0,0 l/m 17,7 km/h (3 Bft) W-SW 0,00 h 0,0 UV-I 0 W/m 4,8 C -0,2 C 27,8 km/h (4 Bft)
29.01.2018 20:00 23,4 C 6,3 C 60 % 91 % 1023,5 hPa 0,0 l/m 13,3 km/h (3 Bft) W-SW 0,00 h 0,0 UV-I 0 W/m 5,0 C 1,8 C 21,8 km/h (4 Bft)
29.01.2018 21:00 23,4 C 6,4 C 61 % 91 % 1023,2 hPa 0,0 l/m 8,9 km/h (2 Bft) SW 0,00 h 0,0 UV-I 0 W/m 5,0 C 4,4 C 14,9 km/h (3 Bft)
29.01.2018 22:00 23,6 C 6,7 C 62 % 89 % 1023,4 hPa 0,0 l/m 11,2 km/h (2 Bft) W-SW 0,00 h 0,0 UV-I 0 W/m 5,1 C 3,4 C 18,7 km/h (3 Bft)
29.01.2018 23:00 23,6 C 6,3 C 62 % 94 % 1023,5 hPa 0,2 l/m 10,7 km/h (2 Bft) W-SW 0,00 h 0,0 UV-I 0 W/m 5,4 C 3,2 C 17,8 km/h (3 Bft)
30.01.2018 00:00 23,4 C 6,4 C 62 % 94 % 1023,7 hPa 0,2 l/m 13,1 km/h (3 Bft) W-SW 0,00 h 0,0 UV-I 0 W/m 5,5 C 1,9 C 22,1 km/h (4 Bft)
30.01.2018 01:00 23,1 C 6,4 C 64 % 95 % 1023,8 hPa 0,2 l/m 13,6 km/h (3 Bft) W-SW 0,00 h 0,0 UV-I 0 W/m 5,6 C 1,7 C 21,8 km/h (4 Bft)
30.01.2018 02:00 22,9 C 5,8 C 65 % 93 % 1024,8 hPa 0,2 l/m 12,6 km/h (3 Bft) W-NW 0,00 h 0,0 UV-I 0 W/m 4,8 C 1,6 C 20,4 km/h (4 Bft)
30.01.2018 03:00 23,1 C 5,1 C 64 % 89 % 1026,2 hPa 0,0 l/m 10,4 km/h (2 Bft) W-NW 0,00 h 0,0 UV-I 0 W/m 3,4 C 2,0 C 16,4 km/h (3 Bft)
30.01.2018 04:00 23,1 C 4,1 C 65 % 86 % 1027,1 hPa 0,0 l/m 7,7 km/h (2 Bft) W-NW 0,00 h 0,0 UV-I 0 W/m 1,9 C 2,5 C 12,0 km/h (2 Bft)
30.01.2018 05:00 23,1 C 2,9 C 65 % 87 % 1027,2 hPa 0,0 l/m 10,3 km/h (2 Bft) W-NW 0,00 h 0,0 UV-I 0 W/m 0,9 C -0,4 C 14,7 km/h (3 Bft)
30.01.2018 06:00 23,1 C 2,6 C 65 % 83 % 1027,7 hPa 0,0 l/m 7,6 km/h (2 Bft) W-NW 0,00 h 0,0 UV-I 0 W/m 0,0 C 0,3 C 12,3 km/h (3 Bft)
30.01.2018 07:00 21,8 C 1,7 C 58 % 86 % 1028,7 hPa 0,0 l/m 2,8 km/h (1 Bft) SW 0,00 h 0,0 UV-I 6 W/m -0,5 C 1,7 C 5,1 km/h (1 Bft)
30.01.2018 08:00 18,4 C 1,8 C 67 % 87 % 1029,1 hPa 0,0 l/m 5,8 km/h (2 Bft) W-SW 0,00 h 0,0 UV-I 44 W/m -0,1 C 1,4 C 9,2 km/h (2 Bft)
30.01.2018 09:00 22,4 C 3,7 C 48 % 81 % 1029,2 hPa 0,0 l/m 3,6 km/h (1 Bft) W-NW 0,67 h 0,6 UV-I 179 W/m 0,7 C 3,4 C 7,3 km/h (2 Bft)
30.01.2018 10:00 23,6 C 4,9 C 46 % 78 % 1029,5 hPa 0,0 l/m 3,6 km/h (1 Bft) W-SW 0,88 h 0,8 UV-I 276 W/m 1,4 C 4,6 C 7,9 km/h (2 Bft)
30.01.2018 11:00 24,0 C 5,9 C 46 % 71 % 1029,4 hPa 0,0 l/m 6,2 km/h (2 Bft) W-NW 0,83 h 1,1 UV-I 321 W/m 1,1 C 4,7 C 10,6 km/h (2 Bft)
30.01.2018 12:00 24,4 C 6,4 C 48 % 67 % 1028,8 hPa 0,0 l/m 7,0 km/h (2 Bft) W-SW 0,97 h 1,2 UV-I 372 W/m 0,7 C 5,4 C 12,0 km/h (2 Bft)
30.01.2018 13:00 24,6 C 6,2 C 49 % 68 % 1028,1 hPa 0,0 l/m 8,0 km/h (2 Bft) W-SW 1,00 h 1,1 UV-I 348 W/m 0,7 C 4,7 C 13,8 km/h (3 Bft)
30.01.2018 14:00 24,5 C 6,4 C 50 % 66 % 1027,6 hPa 0,0 l/m 6,8 km/h (2 Bft) W-SW 1,00 h 0,8 UV-I 272 W/m 0,4 C 5,2 C 12,6 km/h (3 Bft)
30.01.2018 15:00 24,4 C 6,3 C 50 % 61 % 1027,7 hPa 0,0 l/m 7,0 km/h (2 Bft) W 0,47 h 0,5 UV-I 146 W/m -0,5 C 5,1 C 13,0 km/h (3 Bft)
30.01.2018 16:00 24,2 C 5,1 C 51 % 68 % 1027,2 hPa 0,0 l/m 2,2 km/h (1 Bft) SW 0,00 h 0,0 UV-I 28 W/m -0,3 C 5,1 C 5,4 km/h (1 Bft)
30.01.2018 17:00 23,8 C 3,9 C 52 % 74 % 1027,0 hPa 0,0 l/m 0,6 km/h (0 Bft) S-SW 0,00 h 0,0 UV-I 0 W/m -0,3 C 3,9 C 2,0 km/h (1 Bft)
30.01.2018 18:00 23,6 C 2,8 C 53 % 78 % 1026,9 hPa 0,0 l/m 0,3 km/h (0 Bft) SW 0,00 h 0,0 UV-I 0 W/m -0,7 C 2,8 C 0,9 km/h (0 Bft)
30.01.2018 19:00 23,4 C 1,6 C 53 % 81 % 1026,9 hPa 0,0 l/m 0,2 km/h (0 Bft) O-NO 0,00 h 0,0 UV-I 0 W/m -1,3 C 1,6 C 0,4 km/h (0 Bft)
30.01.2018 20:00 23,3 C 0,3 C 54 % 86 % 1026,6 hPa 0,0 l/m 0,5 km/h (0 Bft) O-NO 0,00 h 0,0 UV-I 0 W/m -1,9 C 0,3 C 1,5 km/h (1 Bft)
30.01.2018 21:00 23,2 C -0,5 C 55 % 89 % 1026,3 hPa 0,0 l/m 0,3 km/h (0 Bft) O-NO 0,00 h 0,0 UV-I 0 W/m -2,1 C -0,5 C 0,7 km/h (0 Bft)
30.01.2018 22:00 23,3 C -1,2 C 56 % 89 % 1025,7 hPa 0,0 l/m 0,1 km/h (0 Bft) O-NO 0,00 h 0,0 UV-I 0 W/m -2,7 C -1,2 C 0,2 km/h (0 Bft)
30.01.2018 23:00 23,3 C -1,8 C 56 % 91 % 1025,2 hPa 0,0 l/m 0,2 km/h (0 Bft) NO 0,00 h 0,0 UV-I 0 W/m -3,1 C -1,8 C 0,4 km/h (0 Bft)
31.01.2018 00:00 23,1 C -1,8 C 57 % 92 % 1025,0 hPa 0,0 l/m 0,1 km/h (0 Bft) O-SO 0,00 h 0,0 UV-I 0 W/m -2,9 C -1,8 C 0,5 km/h (0 Bft)
31.01.2018 01:00 22,9 C -2,1 C 58 % 93 % 1024,4 hPa 0,0 l/m 0,0 km/h (0 Bft) N 0,00 h 0,0 UV-I 0 W/m -3,1 C -2,1 C 0,0 km/h (0 Bft)
31.01.2018 02:00 22,9 C -1,6 C 58 % 94 % 1023,5 hPa 0,0 l/m 0,0 km/h (0 Bft) N 0,00 h 0,0 UV-I 0 W/m -2,4 C -1,6 C 0,0 km/h (0 Bft)
31.01.2018 03:00 22,8 C -0,7 C 58 % 95 % 1022,3 hPa 0,0 l/m 0,0 km/h (0 Bft) N 0,00 h 0,0 UV-I 0 W/m -1,4 C -0,7 C 0,0 km/h (0 Bft)
31.01.2018 04:00 22,7 C 0,1 C 59 % 95 % 1021,1 hPa 0,0 l/m 0,9 km/h (0 Bft) SO 0,00 h 0,0 UV-I 0 W/m -0,6 C 0,1 C 2,2 km/h (1 Bft)
31.01.2018 05:00 22,7 C 1,2 C 59 % 95 % 1020,7 hPa 0,0 l/m 0,8 km/h (0 Bft) W-SW 0,00 h 0,0 UV-I 0 W/m 0,5 C 1,2 C 2,5 km/h (1 Bft)
31.01.2018 06:00 22,8 C 1,7 C 59 % 95 % 1019,9 hPa 0,0 l/m 1,8 km/h (1 Bft) S-SW 0,00 h 0,0 UV-I 0 W/m 1,0 C 1,7 C 4,0 km/h (1 Bft)
31.01.2018 07:00 23,1 C 2,4 C 58 % 94 % 1019,2 hPa 0,0 l/m 4,2 km/h (1 Bft) W-SW 0,00 h 0,0 UV-I 5 W/m 1,5 C 2,1 C 7,4 km/h (2 Bft)
31.01.2018 08:00 23,2 C 3,2 C 58 % 91 % 1018,5 hPa 0,0 l/m 6,0 km/h (2 Bft) S 0,00 h 0,0 UV-I 22 W/m 1,9 C 2,7 C 10,5 km/h (2 Bft)
31.01.2018 09:00 23,2 C 4,0 C 58 % 88 % 1017,6 hPa 0,2 l/m 9,9 km/h (2 Bft) S 0,00 h 0,5 UV-I 70 W/m 2,3 C 1,1 C 17,3 km/h (3 Bft)
31.01.2018 10:00 23,2 C 4,5 C 56 % 87 % 1016,7 hPa 0,0 l/m 10,4 km/h (2 Bft) S 0,32 h 0,7 UV-I 138 W/m 2,6 C 1,3 C 16,3 km/h (3 Bft)
31.01.2018 11:00 23,2 C 4,9 C 55 % 90 % 1015,7 hPa 0,0 l/m 10,0 km/h (2 Bft) S 0,17 h 0,6 UV-I 100 W/m 3,3 C 2,0 C 15,8 km/h (3 Bft)
31.01.2018 12:00 23,1 C 5,9 C 55 % 87 % 1014,3 hPa 0,0 l/m 11,2 km/h (2 Bft) S 0,57 h 0,8 UV-I 186 W/m 3,9 C 2,4 C 17,6 km/h (3 Bft)
31.01.2018 13:00 23,3 C 6,9 C 54 % 86 % 1012,5 hPa 0,0 l/m 8,9 km/h (2 Bft) S 0,72 h 0,8 UV-I 183 W/m 4,8 C 4,9 C 14,6 km/h (3 Bft)
31.01.2018 14:00 23,3 C 6,6 C 54 % 90 % 1011,2 hPa 1,2 l/m 8,3 km/h (2 Bft) S 0,00 h 0,0 UV-I 43 W/m 5,0 C 5,0 C 13,2 km/h (3 Bft)
31.01.2018 15:00 23,1 C 5,9 C 54 % 93 % 1010,0 hPa 1,8 l/m 9,5 km/h (2 Bft) S-SO 0,00 h 0,0 UV-I 20 W/m 4,8 C 3,4 C 14,8 km/h (3 Bft)
31.01.2018 16:00 23,1 C 5,5 C 54 % 93 % 1008,8 hPa 0,0 l/m 7,3 km/h (2 Bft) S-SO 0,00 h 0,0 UV-I 10 W/m 4,5 C 4,1 C 12,1 km/h (2 Bft)
31.01.2018 17:00 23,0 C 5,4 C 54 % 93 % 1007,5 hPa 0,0 l/m 7,9 km/h (2 Bft) S-SO 0,00 h 0,0 UV-I 0 W/m 4,3 C 3,9 C 13,1 km/h (3 Bft)
31.01.2018 18:00 22,9 C 5,7 C 59 % 92 % 1006,4 hPa 0,0 l/m 7,0 km/h (2 Bft) S-SO 0,00 h 0,0 UV-I 0 W/m 4,5 C 4,6 C 11,7 km/h (2 Bft)
31.01.2018 19:00 22,9 C 6,0 C 59 % 91 % 1005,1 hPa 0,0 l/m 7,7 km/h (2 Bft) S 0,00 h 0,0 UV-I 0 W/m 4,6 C 4,7 C 13,6 km/h (3 Bft)
31.01.2018 20:00 23,0 C 6,2 C 58 % 89 % 1004,3 hPa 0,0 l/m 10,0 km/h (2 Bft) S 0,00 h 0,0 UV-I 0 W/m 4,6 C 3,4 C 15,9 km/h (3 Bft)
31.01.2018 21:00 23,2 C 5,9 C 58 % 91 % 1003,8 hPa 0,2 l/m 6,9 km/h (2 Bft) S-SW 0,00 h 0,0 UV-I 0 W/m 4,5 C 4,8 C 12,7 km/h (3 Bft)
31.01.2018 22:00 23,2 C 5,5 C 59 % 93 % 1003,3 hPa 0,4 l/m 5,5 km/h (1 Bft) S-SW 0,00 h 0,0 UV-I 0 W/m 4,4 C 4,9 C 11,2 km/h (2 Bft)
31.01.2018 23:00 23,3 C 5,1 C 59 % 93 % 1002,7 hPa 0,6 l/m 6,4 km/h (2 Bft) SW 0,00 h 0,0 UV-I 0 W/m 4,2 C 4,0 C 11,9 km/h (2 Bft)
01.02.2018 00:00 23,2 C 4,6 C 59 % 94 % 1002,4 hPa 0,6 l/m 7,3 km/h (2 Bft) SW 0,00 h 0,0 UV-I 0 W/m 3,7 C 3,3 C 13,3 km/h (3 Bft)
01.02.2018 01:00 22,8 C 4,4 C 60 % 94 % 1001,9 hPa 0,6 l/m 5,5 km/h (1 Bft) S-SW 0,00 h 0,0 UV-I 0 W/m 3,5 C 3,9 C 11,8 km/h (2 Bft)
01.02.2018 02:00 22,7 C 4,3 C 61 % 94 % 1001,6 hPa 0,4 l/m 6,2 km/h (2 Bft) S-SW 0,00 h 0,0 UV-I 0 W/m 3,4 C 3,4 C 11,7 km/h (2 Bft)
01.02.2018 03:00 22,8 C 4,1 C 61 % 95 % 1000,7 hPa 0,4 l/m 5,0 km/h (1 Bft) S 0,00 h 0,0 UV-I 0 W/m 3,4 C 3,7 C 10,2 km/h (2 Bft)
01.02.2018 04:00 22,8 C 4,2 C 61 % 95 % 1000,4 hPa 0,2 l/m 4,4 km/h (1 Bft) S-SW 0,00 h 0,0 UV-I 0 W/m 3,4 C 4,0 C 9,3 km/h (2 Bft)
01.02.2018 05:00 22,8 C 3,8 C 62 % 95 % 1000,7 hPa 0,2 l/m 7,2 km/h (2 Bft) W-SW 0,00 h 0,0 UV-I 0 W/m 3,0 C 2,1 C 12,8 km/h (3 Bft)
01.02.2018 06:00 22,8 C 2,7 C 61 % 94 % 1001,2 hPa 0,0 l/m 3,7 km/h (1 Bft) W-SW 0,00 h 0,0 UV-I 0 W/m 1,8 C 2,6 C 7,9 km/h (2 Bft)
01.02.2018 07:00 22,9 C 2,3 C 61 % 95 % 1001,5 hPa 0,0 l/m 3,6 km/h (1 Bft) SW 0,00 h 0,0 UV-I 5 W/m 1,5 C 2,1 C 7,2 km/h (2 Bft)
01.02.2018 08:00 23,1 C 2,4 C 61 % 95 % 1001,5 hPa 0,0 l/m 3,0 km/h (1 Bft) SW 0,00 h 0,0 UV-I 40 W/m 1,7 C 2,4 C 6,5 km/h (2 Bft)
01.02.2018 09:00 23,1 C 2,7 C 60 % 95 % 1001,7 hPa 0,0 l/m 3,5 km/h (1 Bft) SW 0,00 h 0,0 UV-I 65 W/m 2,0 C 2,7 C 7,0 km/h (2 Bft)
01.02.2018 10:00 23,1 C 2,9 C 59 % 93 % 1001,9 hPa 0,0 l/m 4,0 km/h (1 Bft) SW 0,00 h 0,5 UV-I 68 W/m 2,0 C 2,7 C 8,5 km/h (2 Bft)
01.02.2018 11:00 23,2 C 2,5 C 59 % 93 % 1002,4 hPa 0,2 l/m 5,6 km/h (1 Bft) W-SW 0,00 h 0,6 UV-I 67 W/m 1,5 C 2,0 C 10,7 km/h (2 Bft)
01.02.2018 12:00 23,2 C 2,4 C 58 % 94 % 1002,5 hPa 0,0 l/m 3,8 km/h (1 Bft) SW 0,00 h 0,5 UV-I 100 W/m 1,5 C 2,3 C 7,6 km/h (2 Bft)
01.02.2018 13:00 23,2 C 2,4 C 58 % 94 % 1002,3 hPa 0,4 l/m 4,4 km/h (1 Bft) W-SW 0,00 h 0,5 UV-I 64 W/m 1,4 C 2,0 C 8,0 km/h (2 Bft)
01.02.2018 14:00 23,2 C 1,9 C 57 % 94 % 1002,5 hPa 0,0 l/m 3,7 km/h (1 Bft) S-SW 0,00 h 0,0 UV-I 57 W/m 1,0 C 1,8 C 7,3 km/h (2 Bft)
01.02.2018 15:00 23,2 C 1,5 C 56 % 93 % 1003,0 hPa 0,0 l/m 3,4 km/h (1 Bft) S 0,00 h 0,0 UV-I 32 W/m 0,5 C 1,5 C 7,2 km/h (2 Bft)
01.02.2018 16:00 23,1 C 1,2 C 56 % 93 % 1003,4 hPa 0,0 l/m 4,2 km/h (1 Bft) S 0,00 h 0,0 UV-I 12 W/m 0,2 C 1,1 C 7,3 km/h (2 Bft)
01.02.2018 17:00 23,1 C 1,1 C 59 % 94 % 1003,8 hPa 0,0 l/m 4,3 km/h (1 Bft) S 0,00 h 0,0 UV-I 0 W/m 0,2 C 0,9 C 7,6 km/h (2 Bft)
01.02.2018 18:00 23,4 C 0,8 C 60 % 93 % 1004,5 hPa 0,0 l/m 4,0 km/h (1 Bft) S 0,00 h 0,0 UV-I 0 W/m -0,2 C 0,7 C 8,0 km/h (2 Bft)
01.02.2018 19:00 23,4 C 0,7 C 60 % 93 % 1004,8 hPa 0,0 l/m 5,4 km/h (1 Bft) S 0,00 h 0,0 UV-I 0 W/m -0,3 C 0,5 C 9,0 km/h (2 Bft)
01.02.2018 20:00 23,3 C 0,5 C 61 % 93 % 1005,0 hPa 0,0 l/m 2,5 km/h (1 Bft) S 0,00 h 0,0 UV-I 0 W/m -0,4 C 0,5 C 4,7 km/h (1 Bft)
01.02.2018 21:00 23,4 C 0,2 C 61 % 94 % 1005,1 hPa 0,0 l/m 3,1 km/h (1 Bft) S-SW 0,00 h 0,0 UV-I 0 W/m -0,7 C 0,1 C 6,0 km/h (2 Bft)
01.02.2018 22:00 23,3 C -0,2 C 61 % 94 % 1005,3 hPa 0,0 l/m 1,0 km/h (0 Bft) S 0,00 h 0,0 UV-I 0 W/m -1,0 C -0,2 C 2,3 km/h (1 Bft)
01.02.2018 23:00 23,3 C -0,5 C 62 % 94 % 1005,4 hPa 0,0 l/m 0,4 km/h (0 Bft) S 0,00 h 0,0 UV-I 0 W/m -1,3 C -0,5 C 1,4 km/h (1 Bft)
02.02.2018 00:00 23,2 C -0,6 C 62 % 94 % 1005,4 hPa 0,0 l/m 2,7 km/h (1 Bft) S 0,00 h 0,0 UV-I 0 W/m -1,4 C -0,6 C 5,1 km/h (1 Bft)
02.02.2018 01:00 23,0 C -0,3 C 62 % 94 % 1005,4 hPa 0,0 l/m 5,9 km/h (2 Bft) S 0,00 h 0,0 UV-I 0 W/m -1,1 C -0,8 C 10,4 km/h (2 Bft)
02.02.2018 02:00 22,8 C 0,0 C 62 % 94 % 1005,3 hPa 0,0 l/m 6,2 km/h (2 Bft) S 0,00 h 0,0 UV-I 0 W/m -0,8 C -0,6 C 10,5 km/h (2 Bft)
02.02.2018 03:00 22,7 C 0,2 C 63 % 95 % 1005,2 hPa 0,0 l/m 5,5 km/h (1 Bft) S 0,00 h 0,0 UV-I 0 W/m -0,6 C -0,3 C 10,1 km/h (2 Bft)
02.02.2018 04:00 22,7 C 0,2 C 63 % 95 % 1005,5 hPa 0,0 l/m 6,1 km/h (2 Bft) S-SW 0,00 h 0,0 UV-I 0 W/m -0,6 C -0,4 C 11,9 km/h (2 Bft)
02.02.2018 05:00 22,6 C -0,3 C 64 % 94 % 1005,8 hPa 0,0 l/m 5,5 km/h (1 Bft) SW 0,00 h 0,0 UV-I 0 W/m -1,1 C -0,6 C 10,1 km/h (2 Bft)
02.02.2018 06:00 22,7 C -0,9 C 64 % 94 % 1006,1 hPa 0,0 l/m 3,9 km/h (1 Bft) S-SW 0,00 h 0,0 UV-I 0 W/m -1,7 C -0,9 C 6,8 km/h (2 Bft)
02.02.2018 07:00 22,9 C -1,2 C 63 % 94 % 1006,4 hPa 0,0 l/m 5,0 km/h (1 Bft) S-SW 0,00 h 0,0 UV-I 0 W/m -2,0 C -1,7 C 8,4 km/h (2 Bft)
02.02.2018 08:00 22,9 C -1,0 C 62 % 93 % 1006,7 hPa 0,0 l/m 4,0 km/h (1 Bft) S 0,00 h 0,0 UV-I 20 W/m -1,9 C -1,1 C 7,3 km/h (2 Bft)
02.02.2018 09:00 23,1 C -0,4 C 61 % 93 % 1007,0 hPa 0,0 l/m 4,8 km/h (1 Bft) S 0,00 h 0,5 UV-I 71 W/m -1,5 C -0,8 C 8,3 km/h (2 Bft)
02.02.2018 10:00 23,2 C 0,2 C 60 % 91 % 1007,1 hPa 0,0 l/m 6,2 km/h (2 Bft) S 0,43 h 0,7 UV-I 166 W/m -1,0 C -0,9 C 11,1 km/h (2 Bft)
02.02.2018 11:00 23,9 C 1,1 C 57 % 88 % 1007,1 hPa 0,0 l/m 8,0 km/h (2 Bft) S 0,70 h 0,8 UV-I 205 W/m -0,6 C -0,8 C 13,3 km/h (3 Bft)
02.02.2018 12:00 23,9 C 1,9 C 56 % 85 % 1006,5 hPa 0,0 l/m 8,1 km/h (2 Bft) S 0,75 h 0,9 UV-I 249 W/m -0,3 C 0,0 C 13,3 km/h (3 Bft)
02.02.2018 13:00 23,7 C 1,8 C 55 % 85 % 1006,2 hPa 0,0 l/m 6,0 km/h (2 Bft) S 0,00 h 0,6 UV-I 58 W/m -0,5 C 0,9 C 10,0 km/h (2 Bft)
02.02.2018 14:00 23,3 C 1,6 C 55 % 86 % 1006,1 hPa 0,0 l/m 5,2 km/h (1 Bft) S 0,00 h 0,0 UV-I 40 W/m -0,5 C 1,3 C 8,7 km/h (2 Bft)
02.02.2018 15:00 23,1 C 1,3 C 57 % 89 % 1006,4 hPa 0,0 l/m 4,4 km/h (1 Bft) S 0,00 h 0,0 UV-I 16 W/m -0,3 C 1,2 C 7,6 km/h (2 Bft)
02.02.2018 16:00 22,9 C 1,0 C 56 % 91 % 1006,5 hPa 0,0 l/m 6,9 km/h (2 Bft) S 0,00 h 0,0 UV-I 7 W/m -0,2 C 0,1 C 11,5 km/h (2 Bft)
02.02.2018 17:00 22,8 C 0,9 C 56 % 93 % 1006,7 hPa 0,0 l/m 6,4 km/h (2 Bft) S 0,00 h 0,0 UV-I 0 W/m -0,1 C 0,3 C 10,9 km/h (2 Bft)
02.02.2018 18:00 22,9 C 0,8 C 57 % 94 % 1007,0 hPa 0,0 l/m 6,2 km/h (2 Bft) S 0,00 h 0,0 UV-I 0 W/m -0,1 C 0,1 C 10,6 km/h (2 Bft)
02.02.2018 19:00 22,8 C 0,8 C 58 % 93 % 1007,0 hPa 0,0 l/m 4,3 km/h (1 Bft) S-SW 0,00 h 0,0 UV-I 0 W/m -0,2 C 0,8 C 7,3 km/h (2 Bft)
02.02.2018 20:00 22,9 C 0,8 C 58 % 93 % 1007,0 hPa 0,0 l/m 6,5 km/h (2 Bft) S 0,00 h 0,0 UV-I 0 W/m -0,2 C 0,1 C 11,3 km/h (2 Bft)
02.02.2018 21:00 22,9 C 0,8 C 59 % 93 % 1007,0 hPa 0,0 l/m 6,0 km/h (2 Bft) S-SW 0,00 h 0,0 UV-I 0 W/m -0,2 C 0,2 C 11,2 km/h (2 Bft)
02.02.2018 22:00 23,2 C 0,9 C 59 % 92 % 1007,2 hPa 0,0 l/m 6,5 km/h (2 Bft) SW 0,00 h 0,0 UV-I 0 W/m -0,2 C -0,0 C 12,8 km/h (3 Bft)
02.02.2018 23:00 23,2 C 0,9 C 59 % 93 % 1007,2 hPa 0,0 l/m 4,7 km/h (1 Bft) W-SW 0,00 h 0,0 UV-I 0 W/m -0,1 C 0,5 C 8,7 km/h (2 Bft)
03.02.2018 00:00 23,2 C 0,9 C 60 % 94 % 1007,0 hPa 0,0 l/m 4,9 km/h (1 Bft) W-SW 0,00 h 0,0 UV-I 0 W/m 0,1 C 0,7 C 9,0 km/h (2 Bft)
03.02.2018 01:00 23,0 C 1,1 C 60 % 94 % 1006,9 hPa 0,0 l/m 4,9 km/h (1 Bft) W-SW 0,00 h 0,0 UV-I 0 W/m 0,2 C 0,8 C 9,2 km/h (2 Bft)
03.02.2018 02:00 22,9 C 1,0 C 61 % 94 % 1007,0 hPa 0,0 l/m 3,6 km/h (1 Bft) S-SW 0,00 h 0,0 UV-I 0 W/m 0,2 C 0,9 C 6,8 km/h (2 Bft)
03.02.2018 03:00 22,9 C 0,8 C 62 % 95 % 1006,5 hPa 0,0 l/m 4,3 km/h (1 Bft) SW 0,00 h 0,0 UV-I 0 W/m 0,1 C 0,7 C 7,7 km/h (2 Bft)
03.02.2018 04:00 22,8 C 0,7 C 62 % 95 % 1006,2 hPa 0,0 l/m 4,9 km/h (1 Bft) SW 0,00 h 0,0 UV-I 0 W/m 0,1 C 0,6 C 9,0 km/h (2 Bft)
03.02.2018 05:00 22,8 C 0,8 C 62 % 96 % 1006,1 hPa 0,0 l/m 3,6 km/h (1 Bft) SW 0,00 h 0,0 UV-I 0 W/m 0,2 C 0,7 C 7,1 km/h (2 Bft)
03.02.2018 06:00 22,9 C 0,7 C 62 % 95 % 1006,0 hPa 0,0 l/m 4,1 km/h (1 Bft) S-SW 0,00 h 0,0 UV-I 0 W/m -0,1 C 0,5 C 7,5 km/h (2 Bft)
03.02.2018 07:00 23,1 C 0,6 C 62 % 94 % 1006,0 hPa 0,0 l/m 1,3 km/h (1 Bft) W-SW 0,00 h 0,0 UV-I 0 W/m -0,2 C 0,6 C 3,0 km/h (1 Bft)
03.02.2018 08:00 23,2 C 0,7 C 61 % 94 % 1006,2 hPa 0,0 l/m 1,3 km/h (1 Bft) SW 0,00 h 0,0 UV-I 13 W/m -0,2 C 0,7 C 3,0 km/h (1 Bft)
03.02.2018 09:00 23,3 C 0,7 C 61 % 94 % 1005,5 hPa 0,0 l/m 2,2 km/h (1 Bft) W-SW 0,00 h 0,5 UV-I 55 W/m -0,1 C 0,7 C 4,3 km/h (1 Bft)
03.02.2018 10:00 23,4 C 1,0 C 60 % 94 % 1005,7 hPa 0,0 l/m 3,5 km/h (1 Bft) W-SW 0,00 h 0,0 UV-I 61 W/m 0,1 C 0,8 C 7,1 km/h (2 Bft)
03.02.2018 11:00 23,3 C 1,3 C 60 % 93 % 1005,4 hPa 0,0 l/m 3,0 km/h (1 Bft) W-SW 0,25 h 0,7 UV-I 116 W/m 0,3 C 1,3 C 6,2 km/h (2 Bft)
03.02.2018 12:00 23,3 C 2,8 C 56 % 87 % 1004,9 hPa 0,0 l/m 4,4 km/h (1 Bft) W-SW 0,88 h 1,0 UV-I 298 W/m 0,8 C 2,5 C 8,9 km/h (2 Bft)
03.02.2018 13:00 18,8 C 3,0 C 45 % 81 % 1004,7 hPa 0,0 l/m 4,5 km/h (1 Bft) S-SW 0,45 h 0,9 UV-I 168 W/m 0,1 C 2,6 C 8,8 km/h (2 Bft)
03.02.2018 14:00 21,5 C 2,1 C 48 % 83 % 1004,7 hPa 0,0 l/m 6,1 km/h (2 Bft) W-SW 0,00 h 0,0 UV-I 40 W/m -0,5 C 1,3 C 10,9 km/h (2 Bft)
03.02.2018 15:00 22,0 C 1,0 C 50 % 90 % 1004,8 hPa 0,2 l/m 5,0 km/h (1 Bft) SW 0,00 h 0,0 UV-I 51 W/m -0,5 C 0,4 C 9,0 km/h (2 Bft)
03.02.2018 16:00 21,9 C 0,9 C 51 % 91 % 1004,9 hPa 0,0 l/m 2,6 km/h (1 Bft) W-SW 0,00 h 0,0 UV-I 17 W/m -0,5 C 0,8 C 4,7 km/h (1 Bft)
03.02.2018 17:00 22,2 C 0,8 C 53 % 89 % 1005,3 hPa 0,0 l/m 4,8 km/h (1 Bft) W-NW 0,00 h 0,0 UV-I 0 W/m -0,8 C 0,4 C 7,9 km/h (2 Bft)
03.02.2018 18:00 22,5 C 0,4 C 51 % 84 % 1005,8 hPa 0,0 l/m 7,0 km/h (2 Bft) W-NW 0,00 h 0,0 UV-I 0 W/m -2,0 C -0,7 C 10,3 km/h (2 Bft)
03.02.2018 19:00 22,4 C 0,1 C 52 % 82 % 1006,3 hPa 0,0 l/m 2,5 km/h (1 Bft) W-NW 0,00 h 0,0 UV-I 0 W/m -2,6 C 0,1 C 4,4 km/h (1 Bft)
03.02.2018 20:00 22,6 C -0,5 C 54 % 84 % 1006,9 hPa 0,0 l/m 1,7 km/h (1 Bft) W-NW 0,00 h 0,0 UV-I 0 W/m -2,9 C -0,5 C 2,7 km/h (1 Bft)
03.02.2018 21:00 22,7 C -1,2 C 55 % 86 % 1007,2 hPa 0,0 l/m 0,1 km/h (0 Bft) W-NW 0,00 h 0,0 UV-I 0 W/m -3,3 C -1,2 C 0,3 km/h (0 Bft)
03.02.2018 22:00 22,7 C -1,9 C 55 % 89 % 1008,0 hPa 0,0 l/m 0,3 km/h (0 Bft) W-NW 0,00 h 0,0 UV-I 0 W/m -3,5 C -1,9 C 0,9 km/h (0 Bft)
03.02.2018 23:00 22,7 C -2,3 C 56 % 91 % 1008,6 hPa 0,0 l/m 0,1 km/h (0 Bft) W-NW 0,00 h 0,0 UV-I 0 W/m -3,6 C -2,3 C 0,6 km/h (0 Bft)
04.02.2018 00:00 22,6 C -2,6 C 57 % 92 % 1008,9 hPa 0,0 l/m 0,0 km/h (0 Bft) N 0,00 h 0,0 UV-I 0 W/m -3,8 C -2,6 C 0,0 km/h (0 Bft)
04.02.2018 01:00 22,4 C -2,9 C 57 % 92 % 1009,3 hPa 0,0 l/m 0,0 km/h (0 Bft) N 0,00 h 0,0 UV-I 0 W/m -4,0 C -2,9 C 0,0 km/h (0 Bft)
04.02.2018 02:00 22,3 C -3,2 C 58 % 93 % 1009,8 hPa 0,0 l/m 0,6 km/h (0 Bft) W-NW 0,00 h 0,0 UV-I 0 W/m -4,2 C -3,2 C 1,1 km/h (1 Bft)
04.02.2018 03:00 22,2 C -3,5 C 60 % 94 % 1010,2 hPa 0,0 l/m 0,5 km/h (0 Bft) W-NW 0,00 h 0,0 UV-I 0 W/m -4,4 C -3,5 C 0,9 km/h (0 Bft)
04.02.2018 04:00 22,1 C -3,7 C 61 % 94 % 1010,6 hPa 0,0 l/m 0,1 km/h (0 Bft) W-NW 0,00 h 0,0 UV-I 0 W/m -4,5 C -3,7 C 0,3 km/h (0 Bft)
04.02.2018 05:00 22,0 C -4,3 C 61 % 94 % 1011,4 hPa 0,0 l/m 0,0 km/h (0 Bft) N 0,00 h 0,0 UV-I 0 W/m -5,1 C -4,3 C 0,0 km/h (0 Bft)
04.02.2018 06:00 21,9 C -4,6 C 61 % 94 % 1011,9 hPa 0,0 l/m 0,0 km/h (0 Bft) N 0,00 h 0,0 UV-I 0 W/m -5,4 C -4,6 C 0,0 km/h (0 Bft)
04.02.2018 07:00 22,0 C -4,8 C 61 % 94 % 1012,8 hPa 0,0 l/m 0,0 km/h (0 Bft) N 0,00 h 0,0 UV-I 8 W/m -5,6 C -4,8 C 0,0 km/h (0 Bft)
04.02.2018 08:00 22,2 C -4,4 C 60 % 95 % 1013,9 hPa 0,0 l/m 0,1 km/h (0 Bft) W-NW 0,00 h 0,0 UV-I 55 W/m -5,2 C -4,4 C 0,2 km/h (0 Bft)
04.02.2018 09:00 22,4 C -3,2 C 60 % 95 % 1014,9 hPa 0,0 l/m 0,3 km/h (0 Bft) W-NW 0,00 h 0,0 UV-I 49 W/m -3,9 C -3,2 C 0,5 km/h (0 Bft)
04.02.2018 10:00 22,4 C -2,4 C 60 % 95 % 1015,7 hPa 0,0 l/m 2,9 km/h (1 Bft) S-SW 0,00 h 0,5 UV-I 64 W/m -3,1 C -2,4 C 5,5 km/h (1 Bft)
04.02.2018 11:00 22,5 C -2,1 C 60 % 95 % 1016,3 hPa 0,0 l/m 1,9 km/h (1 Bft) W-SW 0,00 h 0,6 UV-I 102 W/m -2,8 C -2,1 C 3,5 km/h (1 Bft)
04.02.2018 12:00 22,5 C -1,2 C 61 % 95 % 1016,6 hPa 0,0 l/m 0,3 km/h (0 Bft) W 0,65 h 0,8 UV-I 162 W/m -1,9 C -1,2 C 0,7 km/h (0 Bft)
04.02.2018 13:00 22,5 C -0,7 C 58 % 93 % 1017,1 hPa 0,0 l/m 2,1 km/h (1 Bft) W-SW 0,67 h 0,9 UV-I 182 W/m -1,6 C -0,7 C 4,1 km/h (1 Bft)
04.02.2018 14:00 23,0 C 1,0 C 57 % 89 % 1017,7 hPa 0,0 l/m 1,9 km/h (1 Bft) W-NW 0,93 h 0,8 UV-I 330 W/m -0,6 C 1,0 C 4,1 km/h (1 Bft)
04.02.2018 15:00 23,1 C 1,3 C 52 % 85 % 1018,3 hPa 0,0 l/m 0,5 km/h (0 Bft) NW 0,98 h 0,5 UV-I 199 W/m -0,9 C 1,3 C 1,4 km/h (1 Bft)
04.02.2018 16:00 23,0 C 1,2 C 49 % 84 % 1018,8 hPa 0,0 l/m 0,1 km/h (0 Bft) NW 0,05 h 0,0 UV-I 62 W/m -1,1 C 1,2 C 0,3 km/h (0 Bft)
04.02.2018 17:00 22,8 C -0,3 C 49 % 88 % 1019,7 hPa 0,0 l/m 0,0 km/h (0 Bft) N 0,00 h 0,0 UV-I 7 W/m -1,9 C -0,3 C 0,1 km/h (0 Bft)
04.02.2018 18:00 22,7 C -1,2 C 52 % 92 % 1020,7 hPa 0,0 l/m 0,1 km/h (0 Bft) NW 0,00 h 0,0 UV-I 0 W/m -2,4 C -1,2 C 0,6 km/h (0 Bft)
04.02.2018 19:00 22,6 C -1,0 C 53 % 93 % 1021,2 hPa 0,0 l/m 4,3 km/h (1 Bft) N-NO 0,00 h 0,0 UV-I 0 W/m -2,0 C -1,7 C 7,5 km/h (2 Bft)
04.02.2018 20:00 22,6 C -1,3 C 54 % 93 % 1021,8 hPa 0,0 l/m 0,5 km/h (0 Bft) N-NO 0,00 h 0,0 UV-I 0 W/m -2,3 C -1,3 C 1,3 km/h (1 Bft)
04.02.2018 21:00 22,6 C -1,9 C 56 % 93 % 1022,4 hPa 0,0 l/m 1,0 km/h (0 Bft) N 0,00 h 0,0 UV-I 0 W/m -2,9 C -1,9 C 2,3 km/h (1 Bft)
04.02.2018 22:00 22,6 C -2,2 C 56 % 93 % 1023,2 hPa 0,0 l/m 1,3 km/h (1 Bft) N 0,00 h 0,0 UV-I 0 W/m -3,2 C -2,2 C 3,0 km/h (1 Bft)
04.02.2018 23:00 22,6 C -1,9 C 57 % 94 % 1023,8 hPa 0,0 l/m 1,1 km/h (0 Bft) N-NO 0,00 h 0,0 UV-I 0 W/m -2,8 C -1,9 C 2,9 km/h (1 Bft)
Min-Datum _ 30.01.18 04.02.18 03.02.18 30.01.18 01.02.18 - 29.01.18 - - - - 04.02.18 02.02.18 29.01.18
_ Min-Zeit 08:09 08:02 12:54 15:39 03:59 - 02:51 - - - - 08:04 07:59 02:52
Minimum _ 14,3 C -5,1 C 37 % 59 % 1000,3 hPa - 0,0 km/h (0 Bft) - - - - -5,9 C -5,7 C 0,0 km/h (0 Bft)
Max-Datum _ 30.01.18 31.01.18 30.01.18 29.01.18 29.01.18 31.01.18 29.01.18 - 30.01.18 30.01.18 02.02.18 30.01.18 31.01.18 29.01.18
_ Max-Zeit 12:53 13:44 08:14 02:35 01:13 15:02 17:53 - 14:20 12:17 12:32 01:08 13:48 18:07
Maximum _ 24,6 C 7,4 C 79 % 97 % 1032,2 hPa 1,8 l/m 27,4 km/h
W-SW (4 Bft)
- 0,03 h 1,3 UV-I 559 W/m 5,7 C 7,3 C 43,5 km/h
W-SW (6 Bft)
Durchschnitt _ 23,0 C 2,0 C 58 % 91 % 1014,3 hPa #8,8 l/m 5,0 km/h (1 Bft) SW #14:20 h 0,7 UV-I 94 W/m 0,6 C 1,1 C 8,8 km/h (2 Bft)